Time;durP1;ratioP1;P1;durP2;ratioP2;P2;SDS_P1;SDS_P2;PMS_P1;PMS_P2;Temp;Humidity;BMP_temperature;BMP_pressure;BME280_temperature;BME280_humidity;BME280_pressure;Samples;Min_cycle;Max_cycle;Signal;HPM_P1;HPM_P2
2022/04/02 00:00:11;;;;;;;3.45;2.65;;;23.00;35.10;;;;;;6112260;28;80412;-64
2022/04/02 00:03:15;;;;;;;3.22;2.58;;;23.00;35.20;;;;;;6111634;28;80421;-64
2022/04/02 00:06:15;;;;;;;2.55;2.33;;;23.00;35.10;;;;;;6112054;28;80196;-65
2022/04/02 00:09:16;;;;;;;2.72;2.40;;;23.00;35.10;;;;;;6115495;28;80385;-65
2022/04/02 00:12:16;;;;;;;3.72;2.67;;;23.00;35.10;;;;;;6112431;28;80847;-65
2022/04/02 00:15:17;;;;;;;2.85;2.40;;;23.00;35.10;;;;;;6103999;28;81036;-65
2022/04/02 00:18:17;;;;;;;2.97;2.30;;;23.00;35.10;;;;;;6097267;28;80786;-65
2022/04/02 00:21:18;;;;;;;4.68;2.50;;;22.90;35.10;;;;;;6112237;28;80449;-65
2022/04/02 00:24:18;;;;;;;3.65;2.72;;;23.00;35.10;;;;;;6105065;28;80827;-65
2022/04/02 00:27:19;;;;;;;2.28;2.08;;;23.00;35.10;;;;;;6112253;28;80308;-65
2022/04/02 00:30:19;;;;;;;2.47;2.13;;;23.00;35.00;;;;;;6111546;28;80428;-65
2022/04/02 00:33:20;;;;;;;4.22;2.30;;;22.90;35.00;;;;;;6111505;28;80355;-64
2022/04/02 00:36:23;;;;;;;4.00;2.75;;;23.00;35.00;;;;;;6093571;28;82944;-64
2022/04/02 00:39:25;;;;;;;3.05;2.38;;;23.00;35.00;;;;;;6111058;28;80419;-65
2022/04/02 00:42:25;;;;;;;2.85;2.33;;;23.00;34.80;;;;;;6111384;28;80137;-65
2022/04/02 00:45:26;;;;;;;2.75;2.33;;;23.00;34.90;;;;;;6110826;28;81445;-64
2022/04/02 00:48:29;;;;;;;3.58;2.42;;;23.00;34.90;;;;;;6111275;28;80133;-64
2022/04/02 00:51:30;;;;;;;3.05;2.45;;;22.90;34.90;;;;;;6111323;28;80789;-64
2022/04/02 00:54:30;;;;;;;2.72;2.42;;;22.90;34.80;;;;;;6110514;28;80486;-64
2022/04/02 00:57:31;;;;;;;2.95;2.45;;;23.00;35.00;;;;;;6136254;28;83363;-63
2022/04/02 01:00:32;;;;;;;3.22;2.38;;;23.00;34.90;;;;;;6108654;28;83462;-64
2022/04/02 01:03:34;;;;;;;2.75;2.20;;;22.90;34.80;;;;;;6110589;28;80547;-63
2022/04/02 01:06:35;;;;;;;4.00;2.88;;;23.00;34.90;;;;;;6110826;28;80091;-64
2022/04/02 01:09:37;;;;;;;3.65;2.40;;;23.00;34.80;;;;;;6108746;28;82319;-63
2022/04/02 01:12:39;;;;;;;4.35;2.55;;;23.00;34.80;;;;;;6108365;28;82409;-64
2022/04/02 01:15:39;;;;;;;2.55;2.10;;;23.00;34.80;;;;;;6087003;28;80870;-64
2022/04/02 01:18:44;;;;;;;3.33;2.47;;;22.90;34.80;;;;;;6106582;28;80885;-64
2022/04/02 01:21:49;;;;;;;4.63;2.60;;;22.90;34.80;;;;;;6086063;28;82626;-64
2022/04/02 01:25:10;;;;;;;3.50;2.42;;;22.90;34.80;;;;;;6109988;28;83286;-64
2022/04/02 01:28:17;;;;;;;3.50;2.50;;;22.90;34.70;;;;;;6109101;28;87577;-64
2022/04/02 01:31:20;;;;;;;3.00;2.15;;;22.90;34.70;;;;;;6108060;28;82066;-63
2022/04/02 01:34:22;;;;;;;4.07;2.55;;;22.90;34.70;;;;;;6108603;28;82684;-63
2022/04/02 01:37:25;;;;;;;2.50;1.90;;;22.90;35.40;;;;;;6092637;28;81852;-64
2022/04/02 01:40:31;;;;;;;2.45;2.15;;;22.90;35.60;;;;;;6105855;28;81270;-64
2022/04/02 01:43:32;;;;;;;2.47;2.15;;;22.90;35.80;;;;;;6105128;28;82251;-65
2022/04/02 01:46:33;;;;;;;3.08;1.98;;;23.00;35.70;;;;;;6107131;28;83075;-65
2022/04/02 01:49:33;;;;;;;2.65;2.00;;;23.00;35.60;;;;;;6105519;28;80666;-64
2022/04/02 01:52:36;;;;;;;2.10;1.90;;;23.00;35.50;;;;;;6084959;28;83525;-65
2022/04/02 01:55:39;;;;;;;4.57;2.00;;;23.00;35.50;;;;;;6097918;28;81526;-65
2022/04/02 01:59:03;;;;;;;2.25;1.88;;;23.00;35.30;;;;;;6086013;28;81057;-65
2022/04/02 02:02:05;;;;;;;2.53;2.15;;;23.00;35.40;;;;;;6084860;28;82476;-65
2022/04/02 02:05:06;;;;;;;4.40;2.25;;;23.00;35.40;;;;;;6084606;28;82084;-65
2022/04/02 02:08:06;;;;;;;2.47;1.95;;;23.00;35.30;;;;;;6086250;28;80980;-65
2022/04/02 02:11:26;;;;;;;2.25;1.70;;;23.00;35.40;;;;;;6100929;28;83493;-65
2022/04/02 02:14:47;;;;;;;3.03;1.95;;;22.90;35.30;;;;;;6110494;28;81089;-64
2022/04/02 02:17:52;;;;;;;2.15;1.95;;;22.90;35.20;;;;;;6113635;28;80558;-63
2022/04/02 02:20:53;;;;;;;3.95;1.90;;;22.90;35.10;;;;;;6114673;28;81262;-63
2022/04/02 02:23:53;;;;;;;2.17;1.95;;;23.00;35.10;;;;;;6104790;28;83006;-62
2022/04/02 02:26:54;;;;;;;2.65;2.00;;;23.00;35.00;;;;;;6107950;28;81683;-63
2022/04/02 02:30:04;;;;;;;2.65;2.03;;;23.00;35.00;;;;;;6113825;28;80380;-63
2022/04/02 02:36:26;;;;;;;2.58;2.15;;;23.00;35.00;;;;;;6112058;28;83632;-62
2022/04/02 02:39:33;;;;;;;2.38;2.10;;;23.00;35.00;;;;;;6112302;28;82754;-62
2022/04/02 02:42:54;;;;;;;2.45;2.03;;;23.00;35.10;;;;;;6113225;28;83280;-64
2022/04/02 02:46:00;;;;;;;2.03;1.90;;;23.00;34.90;;;;;;6111286;28;83226;-64
2022/04/02 02:49:01;;;;;;;2.20;2.00;;;23.00;35.00;;;;;;6111916;28;83423;-63
2022/04/02 02:52:03;;;;;;;2.63;1.77;;;23.00;35.10;;;;;;6112149;28;83332;-63
2022/04/02 02:55:04;;;;;;;2.83;1.80;;;23.00;35.10;;;;;;6112077;28;80594;-63
2022/04/02 02:58:04;;;;;;;2.35;1.90;;;23.00;35.20;;;;;;6108066;28;80882;-62
2022/04/02 03:01:05;;;;;;;2.17;1.98;;;23.00;35.00;;;;;;6110906;28;83078;-63
2022/04/02 03:04:06;;;;;;;4.80;2.10;;;23.00;35.70;;;;;;6111998;28;82903;-64
2022/04/02 03:07:09;;;;;;;2.42;1.90;;;23.00;35.50;;;;;;6112191;28;82984;-64
2022/04/02 03:10:14;;;;;;;4.45;2.13;;;23.00;35.50;;;;;;6111655;28;86676;-64
2022/04/02 03:13:15;;;;;;;2.42;1.80;;;22.90;35.40;;;;;;6103890;28;83317;-65
2022/04/02 03:16:16;;;;;;;2.30;2.10;;;23.00;35.40;;;;;;6108517;28;83216;-64
2022/04/02 03:19:24;;;;;;;2.58;1.70;;;23.00;35.30;;;;;;6111840;28;82829;-64
2022/04/02 03:22:28;;;;;;;3.25;2.10;;;23.00;35.20;;;;;;6103455;28;83400;-64
2022/04/02 03:25:28;;;;;;;2.58;2.03;;;23.10;34.90;;;;;;6071630;28;82026;-64
2022/04/02 03:28:30;;;;;;;4.72;1.98;;;23.10;34.80;;;;;;6123423;28;82168;-63
2022/04/02 03:31:30;;;;;;;2.00;1.80;;;23.20;34.60;;;;;;6111074;28;83245;-65
2022/04/02 03:34:32;;;;;;;2.67;2.05;;;23.20;34.50;;;;;;6110731;28;82372;-64
2022/04/02 03:37:33;;;;;;;3.30;2.38;;;23.30;34.40;;;;;;6110820;28;83281;-63
2022/04/02 03:40:33;;;;;;;2.40;2.00;;;23.30;34.20;;;;;;6110970;28;81622;-63
2022/04/02 03:43:34;;;;;;;2.60;1.92;;;23.40;34.20;;;;;;6112669;28;80529;-63
2022/04/02 03:50:03;;;;;;;2.08;1.80;;;23.40;34.00;;;;;;6111206;28;81627;-63
2022/04/02 03:53:13;;;;;;;2.13;1.83;;;23.50;33.90;;;;;;6107857;28;83344;-63
2022/04/02 03:56:23;;;;;;;2.25;1.92;;;23.50;33.90;;;;;;6088287;28;81514;-63
2022/04/02 03:59:31;;;;;;;2.05;1.73;;;23.50;33.90;;;;;;6126084;28;83699;-63
2022/04/02 04:02:32;;;;;;;2.03;1.83;;;23.50;33.80;;;;;;6110138;28;82715;-64
2022/04/02 04:05:33;;;;;;;5.75;2.05;;;23.60;33.60;;;;;;6110773;28;82315;-65
2022/04/02 04:08:35;;;;;;;2.13;1.92;;;23.60;33.50;;;;;;6110558;28;82604;-64
2022/04/02 04:11:36;;;;;;;2.50;1.85;;;23.60;33.50;;;;;;6110548;28;80351;-65
2022/04/02 04:14:37;;;;;;;2.47;2.10;;;23.60;33.50;;;;;;6110536;28;82089;-64
2022/04/02 04:17:38;;;;;;;2.22;1.88;;;23.60;33.50;;;;;;6098717;28;80491;-64
2022/04/02 04:20:40;;;;;;;2.03;1.73;;;23.70;33.50;;;;;;6109064;28;81887;-63
2022/04/02 04:23:43;;;;;;;1.95;1.48;;;23.70;33.50;;;;;;6108181;28;84008;-63
2022/04/02 04:26:45;;;;;;;3.90;1.90;;;23.70;33.90;;;;;;6095746;28;83679;-63
2022/04/02 04:29:47;;;;;;;3.80;1.95;;;23.80;34.10;;;;;;6110373;28;81372;-74
2022/04/02 04:32:48;;;;;;;3.85;1.60;;;23.80;34.00;;;;;;6109957;28;82626;-65
2022/04/02 04:35:49;;;;;;;1.90;1.58;;;23.90;33.70;;;;;;6109979;28;81898;-65
2022/04/02 04:38:49;;;;;;;6.55;2.47;;;23.90;33.50;;;;;;6098415;28;82467;-70
2022/04/02 04:41:53;;;;;;;4.82;2.80;;;23.90;33.40;;;;;;6110063;28;81518;-64
2022/04/02 04:44:58;;;;;;;3.70;2.90;;;23.90;33.30;;;;;;6109743;28;83612;-65
2022/04/02 04:47:59;;;;;;;5.13;3.90;;;23.90;33.50;;;;;;6109634;28;83114;-63
2022/04/02 04:51:00;;;;;;;6.03;3.78;;;23.90;34.00;;;;;;6085731;28;82941;-64
2022/04/02 04:54:03;;;;;;;6.65;4.13;;;23.90;34.10;;;;;;6098906;28;80517;-64
2022/04/02 04:57:03;;;;;;;10.55;4.68;;;23.90;34.40;;;;;;6109754;28;82780;-63
2022/04/02 05:00:05;;;;;;;7.30;4.20;;;23.90;34.40;;;;;;6110103;28;80858;-64
2022/04/02 05:03:08;;;;;;;8.05;4.28;;;23.90;35.40;;;;;;6105784;28;83788;-64
2022/04/02 05:06:14;;;;;;;9.98;4.30;;;23.90;35.30;;;;;;6108959;28;82974;-64
2022/04/02 05:09:20;;;;;;;5.40;3.60;;;23.90;35.50;;;;;;6108885;28;80451;-64
2022/04/02 05:12:23;;;;;;;10.55;4.65;;;23.80;36.10;;;;;;6110094;28;80614;-64
2022/04/02 05:15:24;;;;;;;14.52;4.57;;;23.90;36.20;;;;;;6109460;28;82900;-63
2022/04/02 05:18:26;;;;;;;8.50;4.00;;;23.90;36.20;;;;;;6109372;28;83366;-62
2022/04/02 05:21:28;;;;;;;7.80;4.38;;;23.90;36.30;;;;;;6110233;28;80443;-64
2022/04/02 05:24:28;;;;;;;6.55;4.15;;;23.90;36.30;;;;;;6109129;28;83352;-63
2022/04/02 05:27:32;;;;;;;9.35;4.68;;;23.90;36.40;;;;;;6109197;28;83432;-64
2022/04/02 05:30:33;;;;;;;5.00;3.20;;;23.90;36.50;;;;;;6108926;28;82704;-64
2022/04/02 05:33:34;;;;;;;7.43;3.67;;;23.80;36.30;;;;;;6092026;28;80491;-66
2022/04/02 05:36:35;;;;;;;9.65;3.28;;;23.80;36.40;;;;;;6109230;28;82707;-65
2022/04/02 05:39:35;;;;;;;9.70;3.55;;;23.80;36.70;;;;;;6109914;28;80426;-64
2022/04/02 05:42:36;;;;;;;5.72;3.45;;;23.80;36.60;;;;;;6108853;28;81344;-64
2022/04/02 05:45:36;;;;;;;5.88;3.35;;;23.80;36.30;;;;;;6099974;28;83417;-64
2022/04/02 05:48:37;;;;;;;8.32;3.80;;;23.70;36.60;;;;;;6092604;28;80824;-64
2022/04/02 05:51:37;;;;;;;6.82;3.20;;;23.70;36.50;;;;;;6115170;28;80270;-64
2022/04/02 05:54:38;;;;;;;7.63;3.50;;;23.70;36.50;;;;;;6115334;28;80416;-64
2022/04/02 05:57:39;;;;;;;6.72;3.55;;;23.30;37.70;;;;;;6098662;28;80262;-65
2022/04/02 06:00:39;;;;;;;3.92;2.50;;;23.20;38.30;;;;;;6090485;28;80323;-64
2022/04/02 06:03:40;;;;;;;4.45;2.78;;;23.10;38.70;;;;;;6103355;28;81282;-64
2022/04/02 06:06:41;;;;;;;6.13;3.33;;;23.00;39.20;;;;;;6114100;28;80490;-65
2022/04/02 06:09:43;;;;;;;3.42;2.70;;;23.00;39.50;;;;;;6113005;28;82988;-65
2022/04/02 06:12:44;;;;;;;7.65;2.88;;;22.90;39.30;;;;;;6106327;28;80823;-62
2022/04/02 06:15:44;;;;;;;4.60;2.83;;;22.90;39.70;;;;;;6106746;28;80765;-66
2022/04/02 06:18:45;;;;;;;2.97;2.28;;;22.90;39.10;;;;;;6108135;28;80205;-65
2022/04/02 06:21:46;;;;;;;3.70;2.10;;;22.80;39.00;;;;;;6109717;28;80882;-66
2022/04/02 06:24:46;;;;;;;4.43;2.65;;;22.80;39.10;;;;;;6110165;28;81477;-66
2022/04/02 06:27:47;;;;;;;2.78;2.17;;;22.70;39.10;;;;;;6110640;28;80561;-66
2022/04/02 06:30:48;;;;;;;14.82;3.85;;;22.70;39.10;;;;;;6114659;28;80361;-65
2022/04/02 06:33:48;;;;;;;7.63;2.72;;;22.70;39.40;;;;;;6113662;28;80439;-65
2022/04/02 06:36:49;;;;;;;9.13;3.20;;;22.70;39.20;;;;;;6110140;28;83169;-67
2022/04/02 06:39:49;;;;;;;5.95;2.50;;;22.70;39.40;;;;;;6090197;28;80185;-66
2022/04/02 06:42:51;;;;;;;5.47;2.70;;;22.70;39.80;;;;;;6100014;28;80942;-65
2022/04/02 06:46:05;;;;;;;5.07;2.40;;;22.80;40.60;;;;;;6112306;28;83125;-64
2022/04/02 06:49:09;;;;;;;3.88;2.75;;;22.70;40.20;;;;;;6113675;28;80487;-66
2022/04/02 06:52:10;;;;;;;4.63;2.47;;;22.70;40.40;;;;;;6113202;28;80880;-65
2022/04/02 06:55:13;;;;;;;5.20;2.28;;;22.70;40.40;;;;;;6113395;28;80760;-65
2022/04/02 06:58:14;;;;;;;2.97;2.20;;;22.70;40.10;;;;;;6105089;28;85337;-67
2022/04/02 07:01:14;;;;;;;5.75;2.47;;;22.70;40.20;;;;;;6111896;28;80711;-71
2022/04/02 07:04:15;;;;;;;3.75;2.45;;;22.70;40.50;;;;;;6113558;28;80205;-64
2022/04/02 07:07:15;;;;;;;5.47;2.97;;;22.60;40.30;;;;;;6107755;28;81369;-64
2022/04/02 07:10:16;;;;;;;4.93;2.97;;;22.60;40.60;;;;;;6112825;28;80208;-64
2022/04/02 07:13:16;;;;;;;6.55;3.38;;;22.60;40.90;;;;;;6113410;28;80843;-65
2022/04/02 07:16:18;;;;;;;4.13;2.75;;;22.60;41.10;;;;;;6113363;28;80259;-64
2022/04/02 07:19:19;;;;;;;6.45;2.78;;;22.70;41.30;;;;;;6098300;28;80756;-64
2022/04/02 07:22:20;;;;;;;5.80;2.60;;;22.70;41.10;;;;;;6109883;28;81445;-64
2022/04/02 07:25:20;;;;;;;5.05;2.80;;;22.70;41.10;;;;;;6111117;28;80527;-64
2022/04/02 07:28:21;;;;;;;6.45;2.78;;;22.70;41.30;;;;;;6111791;28;83700;-63
2022/04/02 07:31:22;;;;;;;3.97;2.35;;;22.70;41.80;;;;;;6101891;28;80727;-63
2022/04/02 07:34:22;;;;;;;6.50;2.40;;;22.60;41.80;;;;;;6098483;28;80639;-64
2022/04/02 07:37:23;;;;;;;4.68;2.20;;;22.60;41.90;;;;;;6103543;28;80387;-62
2022/04/02 07:40:24;;;;;;;4.78;2.30;;;22.60;42.00;;;;;;6108598;28;80654;-61
2022/04/02 07:43:29;;;;;;;4.30;2.08;;;22.60;41.90;;;;;;6094496;28;83444;-62
2022/04/02 07:46:29;;;;;;;3.50;2.03;;;22.60;42.40;;;;;;6110467;28;80705;-68
2022/04/02 07:49:33;;;;;;;4.63;2.78;;;22.60;42.30;;;;;;6097970;28;83194;-62
2022/04/02 07:52:36;;;;;;;3.40;1.85;;;22.70;42.20;;;;;;6108946;28;80634;-63
2022/04/02 07:55:36;;;;;;;3.88;1.90;;;22.70;42.30;;;;;;6108552;28;80301;-62
2022/04/02 07:58:37;;;;;;;2.53;2.03;;;22.70;42.30;;;;;;6111963;28;80713;-66
2022/04/02 08:01:39;;;;;;;2.05;1.83;;;22.70;42.60;;;;;;6110039;28;83306;-63
2022/04/02 08:04:40;;;;;;;6.68;1.85;;;22.70;42.90;;;;;;6110285;28;82961;-63
2022/04/02 08:07:43;;;;;;;3.75;2.30;;;22.70;42.60;;;;;;6110572;28;83602;-73
2022/04/02 08:10:46;;;;;;;3.45;2.30;;;22.70;42.40;;;;;;6111369;28;80456;-63
2022/04/02 08:13:46;;;;;;;3.20;1.70;;;22.70;42.30;;;;;;6114113;28;80303;-64
2022/04/02 08:16:47;;;;;;;3.35;1.90;;;22.70;42.20;;;;;;6136642;28;81423;-65
2022/04/02 08:19:47;;;;;;;4.70;1.80;;;22.70;42.30;;;;;;6126729;28;80351;-65
2022/04/02 08:22:48;;;;;;;7.70;4.70;;;22.60;42.20;;;;;;6089926;28;80171;-65
2022/04/02 08:25:50;;;;;;;115.38;50.97;;;22.60;41.80;;;;;;6116497;28;81464;-65
2022/04/02 08:28:51;;;;;;;185.07;89.75;;;22.60;41.90;;;;;;6085124;28;83009;-65
2022/04/02 08:31:52;;;;;;;215.45;100.10;;;22.60;41.90;;;;;;6108467;28;83163;-65
2022/04/02 08:34:52;;;;;;;183.82;87.95;;;22.60;41.90;;;;;;6105692;28;85503;-65
2022/04/02 08:37:53;;;;;;;262.73;122.63;;;22.60;41.90;;;;;;6090194;28;85540;-64
2022/04/02 08:40:53;;;;;;;380.48;172.80;;;22.60;41.90;;;;;;6096925;28;85787;-64
2022/04/02 08:43:54;;;;;;;447.48;196.48;;;22.60;41.70;;;;;;6107282;28;85653;-64
2022/04/02 08:46:55;;;;;;;347.27;155.18;;;22.70;41.80;;;;;;6106006;28;85252;-64
2022/04/02 08:49:55;;;;;;;289.83;133.98;;;22.70;41.70;;;;;;6106570;28;86430;-64
2022/04/02 08:52:56;;;;;;;246.55;114.88;;;22.70;41.60;;;;;;6098933;28;85568;-64
2022/04/02 08:55:56;;;;;;;238.60;105.65;;;22.70;41.40;;;;;;6101263;28;86875;-65
2022/04/02 08:58:58;;;;;;;209.32;94.38;;;22.70;41.40;;;;;;6081143;28;85798;-65
2022/04/02 09:01:59;;;;;;;181.38;82.25;;;22.70;41.40;;;;;;6082718;28;85431;-64
2022/04/02 09:04:59;;;;;;;184.23;81.03;;;22.70;41.30;;;;;;6091833;28;83294;-66
2022/04/02 09:08:00;;;;;;;157.25;72.43;;;22.70;41.30;;;;;;6084094;28;83473;-66
2022/04/02 09:11:00;;;;;;;135.57;64.53;;;22.70;41.30;;;;;;6086654;28;83659;-65
2022/04/02 09:14:01;;;;;;;135.02;60.35;;;22.70;41.20;;;;;;6082753;28;83137;-66
2022/04/02 09:17:02;;;;;;;120.13;54.90;;;22.70;41.20;;;;;;6084842;28;83264;-65
2022/04/02 09:20:02;;;;;;;98.22;48.53;;;22.70;41.30;;;;;;6084194;28;83373;-65
2022/04/02 09:23:03;;;;;;;98.43;45.78;;;22.70;41.50;;;;;;6089353;28;82933;-66
2022/04/02 09:26:04;;;;;;;90.40;39.63;;;22.70;41.60;;;;;;6083571;28;83536;-67
2022/04/02 09:29:04;;;;;;;92.63;36.30;;;22.70;41.60;;;;;;6082615;28;83058;-66
2022/04/02 09:32:06;;;;;;;83.03;37.30;;;22.60;41.60;;;;;;6090436;28;84700;-65
2022/04/02 09:35:07;;;;;;;73.50;32.33;;;22.70;41.70;;;;;;6085390;28;84651;-65
2022/04/02 09:38:07;;;;;;;66.78;31.42;;;22.70;41.60;;;;;;6087747;28;83028;-64
2022/04/02 09:41:08;;;;;;;60.50;27.98;;;22.70;41.50;;;;;;6081729;28;86392;-65
2022/04/02 09:44:08;;;;;;;49.13;24.75;;;22.70;41.60;;;;;;6083862;28;83273;-65
2022/04/02 09:47:09;;;;;;;54.15;24.90;;;22.70;41.40;;;;;;6096850;28;84643;-65
2022/04/02 09:50:09;;;;;;;49.08;23.33;;;22.60;41.50;;;;;;6127390;28;83394;-65
2022/04/02 09:53:10;;;;;;;43.38;20.95;;;22.60;41.70;;;;;;6106937;28;82968;-64
2022/04/02 09:56:11;;;;;;;38.90;19.77;;;22.60;41.50;;;;;;6086889;28;83613;-64
2022/04/02 09:59:11;;;;;;;37.67;19.25;;;22.60;41.50;;;;;;6106603;28;83306;-63
2022/04/02 10:02:12;;;;;;;36.88;17.63;;;22.70;41.60;;;;;;6107293;28;82985;-64
2022/04/02 10:05:14;;;;;;;33.58;16.58;;;22.70;41.40;;;;;;6107298;28;83313;-64
2022/04/02 10:08:15;;;;;;;35.17;16.25;;;22.70;41.50;;;;;;6100550;28;84416;-64
2022/04/02 10:11:17;;;;;;;40.88;16.73;;;22.70;41.40;;;;;;6106720;28;84278;-64
2022/04/02 10:14:18;;;;;;;31.92;16.05;;;22.70;42.00;;;;;;6106936;28;83010;-65
2022/04/02 10:17:18;;;;;;;33.95;15.68;;;22.70;42.70;;;;;;6100178;28;84272;-65
2022/04/02 10:20:20;;;;;;;36.70;16.35;;;22.70;43.60;;;;;;6083226;28;83042;-65
2022/04/02 10:23:20;;;;;;;39.63;16.63;;;22.80;44.40;;;;;;6099938;28;83746;-65
2022/04/02 10:26:21;;;;;;;44.35;18.02;;;22.80;44.00;;;;;;6106334;28;83122;-65
2022/04/02 10:29:21;;;;;;;38.63;15.93;;;22.80;45.30;;;;;;6106723;28;83986;-65
2022/04/02 10:32:22;;;;;;;32.17;15.07;;;22.80;45.00;;;;;;6106323;28;83323;-72
2022/04/02 10:35:23;;;;;;;30.70;14.55;;;22.80;45.40;;;;;;6107255;28;82894;-64
2022/04/02 10:38:23;;;;;;;34.55;14.77;;;22.80;45.50;;;;;;6110559;28;83951;-67
2022/04/02 10:41:24;;;;;;;30.25;14.40;;;22.80;45.70;;;;;;6106267;28;83136;-65
2022/04/02 10:44:24;;;;;;;33.67;14.57;;;22.90;46.00;;;;;;6113305;28;83032;-66
2022/04/02 10:47:26;;;;;;;35.80;14.95;;;22.90;46.30;;;;;;6128451;28;83405;-65
2022/04/02 10:50:26;;;;;;;32.33;15.30;;;22.90;46.50;;;;;;6110737;28;83399;-64
2022/04/02 10:53:27;;;;;;;36.33;15.48;;;23.00;46.60;;;;;;6110329;28;83288;-64
2022/04/02 10:56:27;;;;;;;29.27;13.68;;;23.00;47.20;;;;;;6110264;28;83083;-64
2022/04/02 10:59:30;;;;;;;30.30;14.15;;;23.00;47.20;;;;;;6109752;28;84378;-64
2022/04/02 11:02:30;;;;;;;31.73;13.45;;;23.00;47.20;;;;;;6108543;28;83716;-64
2022/04/02 11:05:31;;;;;;;35.15;14.68;;;23.00;47.10;;;;;;6108625;28;83126;-64
2022/04/02 11:08:31;;;;;;;26.90;12.32;;;23.00;46.50;;;;;;6109664;28;83375;-65
2022/04/02 11:11:32;;;;;;;18.98;11.00;;;23.00;45.30;;;;;;6110351;28;83295;-64
2022/04/02 11:14:32;;;;;;;17.35;8.95;;;23.00;43.90;;;;;;6109962;28;83042;-65
2022/04/02 11:17:33;;;;;;;10.88;7.00;;;22.90;42.20;;;;;;6113168;28;83602;-65
2022/04/02 11:20:34;;;;;;;16.70;7.88;;;22.90;41.60;;;;;;6113043;28;80523;-64
2022/04/02 11:23:34;;;;;;;12.02;7.32;;;22.90;41.90;;;;;;6098181;28;80372;-67
2022/04/02 11:26:35;;;;;;;17.15;7.45;;;22.90;42.40;;;;;;6088870;28;80352;-67
2022/04/02 11:29:36;;;;;;;10.73;6.60;;;22.90;42.70;;;;;;6092174;28;80677;-64
2022/04/02 11:32:36;;;;;;;11.38;6.95;;;22.80;42.70;;;;;;6093893;28;81662;-66
2022/04/02 11:35:37;;;;;;;13.68;7.13;;;22.80;42.70;;;;;;6111953;28;80611;-65
2022/04/02 11:38:38;;;;;;;11.48;6.85;;;22.80;42.90;;;;;;6112782;28;81506;-66
2022/04/02 11:41:38;;;;;;;12.52;6.07;;;22.80;43.10;;;;;;6124786;28;80450;-66
2022/04/02 11:44:39;;;;;;;9.55;5.78;;;22.90;42.80;;;;;;6121996;28;80554;-66
2022/04/02 11:47:40;;;;;;;9.32;6.15;;;22.90;42.80;;;;;;6111874;28;80264;-66
2022/04/02 11:50:42;;;;;;;8.73;5.90;;;22.80;42.70;;;;;;6112861;28;80732;-64
2022/04/02 11:53:44;;;;;;;9.15;5.10;;;22.80;42.60;;;;;;6094824;28;80357;-65
2022/04/02 11:56:46;;;;;;;9.38;5.90;;;22.80;42.60;;;;;;6112815;28;80436;-67
2022/04/02 11:59:47;;;;;;;13.25;5.05;;;22.80;42.70;;;;;;6112798;28;80188;-68
2022/04/02 12:02:47;;;;;;;15.45;7.57;;;22.80;42.70;;;;;;6113227;28;80570;-67
2022/04/02 12:05:48;;;;;;;403.50;141.88;;;22.80;42.40;;;;;;6109689;28;83512;-65
2022/04/02 12:08:49;;;;;;;477.85;175.35;;;22.80;42.80;;;;;;6103515;28;85849;-67
2022/04/02 12:11:49;;;;;;;628.97;267.77;;;22.80;43.00;;;;;;6105908;28;85847;-66
2022/04/02 12:14:52;;;;;;;464.33;169.35;;;22.90;43.20;;;;;;6106201;28;85472;-65
2022/04/02 12:17:53;;;;;;;373.38;140.65;;;22.90;42.90;;;;;;6102674;28;85588;-67
2022/04/02 12:20:53;;;;;;;393.40;149.05;;;22.80;42.80;;;;;;6102101;28;85786;-66
2022/04/02 12:23:55;;;;;;;620.00;269.95;;;22.80;43.10;;;;;;6098322;28;85543;-65
2022/04/02 12:26:55;;;;;;;666.33;303.52;;;22.80;43.50;;;;;;6096040;28;87300;-65
2022/04/02 12:29:56;;;;;;;510.38;204.35;;;22.80;43.50;;;;;;6101519;28;87690;-67
2022/04/02 12:32:57;;;;;;;417.05;162.20;;;22.90;43.20;;;;;;6104694;28;86408;-66
2022/04/02 12:35:57;;;;;;;407.75;154.52;;;22.90;43.40;;;;;;6097977;28;85809;-64
2022/04/02 12:38:58;;;;;;;351.83;138.32;;;22.90;43.60;;;;;;6092980;28;85639;-68
2022/04/02 12:41:58;;;;;;;333.45;129.52;;;22.80;43.60;;;;;;6094461;28;86198;-66
2022/04/02 12:44:59;;;;;;;274.75;112.43;;;22.90;43.90;;;;;;6104695;28;85472;-66
2022/04/02 12:47:59;;;;;;;246.52;99.78;;;22.90;43.90;;;;;;6081517;28;85902;-67
2022/04/02 12:51:00;;;;;;;225.40;90.60;;;22.80;44.20;;;;;;6099611;28;85530;-66
2022/04/02 12:54:01;;;;;;;206.52;83.90;;;22.80;44.30;;;;;;6100709;28;83490;-65
2022/04/02 12:57:01;;;;;;;193.90;76.95;;;22.90;43.70;;;;;;6106733;28;86720;-66
2022/04/02 13:00:03;;;;;;;182.55;68.95;;;22.80;43.20;;;;;;6104714;28;83181;-64
2022/04/02 13:03:03;;;;;;;150.38;60.80;;;22.80;43.30;;;;;;6096253;28;83021;-64
2022/04/02 13:06:04;;;;;;;143.52;59.25;;;22.90;43.30;;;;;;6099305;28;82819;-65
2022/04/02 13:09:04;;;;;;;130.15;53.63;;;22.80;43.50;;;;;;6094105;28;84636;-64
2022/04/02 13:12:06;;;;;;;122.88;49.63;;;22.80;43.50;;;;;;6094186;28;83119;-65
2022/04/02 13:15:06;;;;;;;111.88;45.75;;;22.80;43.80;;;;;;6090764;28;83327;-65
2022/04/02 13:21:26;;;;;;;98.40;39.30;;;22.80;43.80;;;;;;6086004;28;83054;-65
2022/04/02 13:24:27;;;;;;;98.43;39.20;;;22.80;43.60;;;;;;6099150;28;83174;-66
2022/04/02 13:27:30;;;;;;;86.43;36.15;;;22.80;43.60;;;;;;6102855;28;84244;-66
2022/04/02 13:30:31;;;;;;;86.15;32.85;;;22.80;43.40;;;;;;6094172;28;84140;-65
2022/04/02 13:33:31;;;;;;;75.10;30.85;;;22.80;43.60;;;;;;6086491;28;84155;-66
2022/04/02 13:36:32;;;;;;;70.50;28.92;;;22.80;43.60;;;;;;6095298;28;83282;-65
2022/04/02 13:39:32;;;;;;;67.72;29.38;;;22.80;43.80;;;;;;6107786;28;83152;-65
2022/04/02 13:42:33;;;;;;;56.55;24.23;;;22.80;43.50;;;;;;6107452;28;83256;-64
2022/04/02 13:45:34;;;;;;;60.83;23.75;;;22.70;42.90;;;;;;6104868;28;83266;-65
2022/04/02 13:48:35;;;;;;;54.30;22.00;;;22.70;43.20;;;;;;6082688;28;83510;-64
2022/04/02 13:51:35;;;;;;;53.33;24.05;;;22.70;43.40;;;;;;6090215;28;83286;-64
2022/04/02 13:54:36;;;;;;;60.65;25.45;;;22.70;43.90;;;;;;6084989;28;83285;-64
2022/04/02 13:57:36;;;;;;;53.13;24.90;;;22.80;45.00;;;;;;6081435;28;83574;-64
2022/04/02 14:00:37;;;;;;;51.88;24.83;;;22.80;46.30;;;;;;6079732;28;83444;-71
2022/04/02 14:03:38;;;;;;;53.25;24.35;;;22.90;48.00;;;;;;6085956;28;83372;-66
2022/04/02 14:06:39;;;;;;;47.72;21.52;;;22.90;47.50;;;;;;6105216;28;83038;-67
2022/04/02 14:09:40;;;;;;;42.92;19.90;;;22.80;47.50;;;;;;6104852;28;82881;-66
2022/04/02 14:12:42;;;;;;;39.47;19.50;;;22.80;47.70;;;;;;6107827;28;83849;-66
2022/04/02 14:15:42;;;;;;;48.53;19.17;;;22.80;48.20;;;;;;6092723;28;83574;-65
2022/04/02 14:18:45;;;;;;;41.47;17.27;;;22.80;48.90;;;;;;6086874;28;83203;-71
2022/04/02 14:21:46;;;;;;;33.72;16.35;;;22.80;48.00;;;;;;6106589;28;83528;-66
2022/04/02 14:24:46;;;;;;;47.30;15.43;;;22.70;47.60;;;;;;6109939;28;83216;-66
2022/04/02 14:27:47;;;;;;;31.67;14.95;;;22.70;48.80;;;;;;6110649;28;83114;-67
2022/04/02 14:30:47;;;;;;;32.53;14.18;;;22.70;48.40;;;;;;6109009;28;84175;-66
2022/04/02 14:33:48;;;;;;;30.20;13.63;;;22.70;48.30;;;;;;6110554;28;82959;-65
2022/04/02 14:36:48;;;;;;;27.73;13.23;;;22.70;48.00;;;;;;6098753;28;83797;-64
2022/04/02 14:39:49;;;;;;;25.67;13.48;;;22.80;48.30;;;;;;6086467;28;83098;-64
2022/04/02 14:42:49;;;;;;;22.23;11.48;;;22.80;48.50;;;;;;6086060;28;83631;-66
2022/04/02 14:45:50;;;;;;;27.13;12.27;;;22.70;48.60;;;;;;6086095;28;83350;-65
2022/04/02 14:48:51;;;;;;;26.45;10.88;;;22.80;48.70;;;;;;6086141;28;83980;-64
2022/04/02 14:51:51;;;;;;;30.25;12.30;;;22.70;48.60;;;;;;6085798;28;84354;-66
2022/04/02 14:54:52;;;;;;;23.33;10.65;;;22.80;48.10;;;;;;6086379;28;83337;-65
2022/04/02 14:57:52;;;;;;;22.75;10.27;;;22.80;48.10;;;;;;6085959;28;83178;-66
2022/04/02 15:00:53;;;;;;;21.85;10.23;;;22.80;47.90;;;;;;6107265;28;84204;-66
2022/04/02 15:03:53;;;;;;;26.95;9.93;;;22.70;47.50;;;;;;6107058;28;83224;-65
2022/04/02 15:06:54;;;;;;;25.80;9.55;;;22.70;47.60;;;;;;6111888;28;82928;-65
2022/04/02 15:09:54;;;;;;;17.70;9.02;;;22.60;47.90;;;;;;6112736;28;81903;-65
2022/04/02 15:12:55;;;;;;;17.50;8.13;;;22.60;47.60;;;;;;6112809;28;80507;-65
2022/04/02 15:15:56;;;;;;;16.30;7.82;;;22.60;47.90;;;;;;6113129;28;80557;-65
2022/04/02 15:18:56;;;;;;;19.83;8.07;;;22.70;48.10;;;;;;6111891;28;80267;-67
2022/04/02 15:21:57;;;;;;;20.20;7.82;;;22.70;48.40;;;;;;6110248;28;80355;-64
2022/04/02 15:24:59;;;;;;;19.08;7.38;;;22.60;49.00;;;;;;6102742;28;80963;-65
2022/04/02 15:28:00;;;;;;;18.60;7.93;;;22.70;49.00;;;;;;6102580;28;80820;-64
2022/04/02 15:31:00;;;;;;;21.50;8.85;;;22.70;48.90;;;;;;6098630;28;80581;-64
2022/04/02 15:34:01;;;;;;;20.58;7.97;;;22.70;48.90;;;;;;6108117;28;80783;-63
2022/04/02 15:37:01;;;;;;;14.63;7.35;;;22.70;48.50;;;;;;6108185;28;80751;-63
2022/04/02 15:40:03;;;;;;;13.82;7.55;;;22.70;48.40;;;;;;6109241;28;81365;-64